Nogal, NM

7:36 AM MDT op 27 mei 2015 (GMT -0600)
coyote mesa | | Change Station
CLOSE
Current Station
Persoonlijk weerstation
Location: Alto, NM
Geometrische hoogte: 7323 ft
Nabije weerstations

Hoogte 7323 ft 33.43 °N, 105.66 °W | Updated 1 minute ago

Gedeeltelijk bewolkt
Gedeeltelijk bewolkt
52.2 °F
Voelt als 52.2 °F
N
0.0
Wind Variabel Wind van ZO

Vandaag
Hoog -- | Laag -- °F
--% Kans op neerslag
Gisteren
Hoog -- | Laag -- °F
Precip. -- inches
5:55 AM 8:04 PM
Wassende maan, 67% visible
Druk 30.25 inches
Zicht 10.0 mijlen
Wolken Helder
Dauwpunt 36 °F
Vochtigheid 54%
Neerslag 0.00 inches
Dikte sneeuw Niet beschikbaar.
UV 1 van de 12
Pollen 5.70 van de 12
Luchtkwaliteit Niet beschikbaar.
Flu Activity Local Activity
METAR KSRR 271315Z AUTO 00000KT 10SM CLR 14/00 A3025 RMK AO2

More Conditions Fewer Conditions

Druk 30.25 inches
Zicht 10.0 mijlen
Wolken Helder
Dauwpunt 36 °F
Vochtigheid 54%
Neerslag 0.00 inches
Dikte sneeuw Niet beschikbaar.
UV 1 van de 12
Pollen 5.70 van de 12
Luchtkwaliteit Niet beschikbaar.
Flu Activity Local Activity
METAR KSRR 271315Z AUTO 00000KT 10SM CLR 14/00 A3025 RMK AO2

More Conditions Fewer Conditions

10-Day Weather Forecast

Almanac

Astronomie

May. 27, 2015 Opkomst Ondergang
Werkelijke tijd
Burgerlijke schemering
Nautische schemering
Astronomische schemering
Maan
Golflengte van het zichtbare licht
Daglengte
Tomorrow will be .
, % of the Moon is Illuminated

Extremen vandaag

State Highs State Lows

Community

WunderPhotos

Upload Photos

1,824,665 foto’s ge-upload!

WunderBlogs® & News

Nearby

Luchtkwaliteit

  Luchtkwaliteit LK-index Verontreinigende stof
Not available.

Dikte sneeuw

Station Depth Geometrische hoogte

Aardbevingen

Stad Distance Mag. Time & Date
Minimum magnitude displayed is 2.5.

Watertemperatuur langs de kust

Plaats Temperatuur

Stations

Nabije weerstations

Locatie station Temp. Gevoelstemperatuur Dauwpunt Vochtigheid Wind Precip. Hoogte Geactualiseerd Type